createdAt,value
2023-04-12T00:04:58.167Z,0.65
2023-04-12T00:10:20.239Z,0.40
2023-04-12T00:15:42.138Z,0.63
2023-04-12T00:21:04.133Z,0.50
2023-04-12T00:26:26.121Z,0.43
2023-04-12T00:31:48.026Z,0.40
2023-04-12T00:37:09.915Z,0.50
2023-04-12T00:42:31.804Z,0.73
2023-04-12T00:47:54.482Z,0.50
2023-04-12T00:53:19.079Z,0.47
2023-04-12T00:58:41.847Z,0.38
2023-04-12T01:04:05.043Z,0.38
2023-04-12T01:09:46.927Z,0.40
2023-04-12T01:15:14.287Z,0.43
2023-04-12T01:20:45.114Z,0.50
2023-04-12T01:26:38.130Z,0.40
2023-04-12T01:32:03.340Z,0.60
2023-04-12T01:37:26.321Z,0.35
2023-04-12T01:42:48.224Z,0.68
2023-04-12T01:48:12.500Z,0.35
2023-04-12T01:53:45.680Z,0.22
2023-04-12T01:59:09.494Z,0.50
2023-04-12T02:04:32.581Z,0.30
2023-04-12T02:09:54.408Z,0.30
2023-04-12T02:15:21.727Z,0.43
2023-04-12T02:20:44.142Z,0.20
2023-04-12T02:26:06.328Z,0.30
2023-04-12T02:31:28.330Z,0.32
2023-04-12T02:36:50.758Z,0.55
2023-04-12T02:42:12.619Z,0.28
2023-04-12T02:47:34.393Z,0.22
2023-04-12T02:52:56.564Z,0.40
2023-04-12T02:58:19.221Z,0.45
2023-04-12T03:03:41.386Z,0.30
2023-04-12T03:09:03.413Z,0.20
2023-04-12T03:14:25.216Z,0.30
2023-04-12T03:19:47.189Z,0.20
2023-04-12T03:25:10.271Z,0.22
2023-04-12T03:30:32.277Z,0.28
2023-04-12T03:35:54.186Z,0.30
2023-04-12T03:41:16.240Z,0.10
2023-04-12T03:46:38.455Z,0.10
2023-04-12T03:52:00.342Z,0.20
2023-04-12T03:57:22.246Z,0.20
2023-04-12T04:02:44.369Z,0.10
2023-04-12T04:08:07.952Z,0.30
2023-04-12T04:13:29.799Z,0.30
2023-04-12T04:18:51.949Z,0.30
2023-04-12T04:24:14.587Z,0.25
2023-04-12T04:29:45.729Z,0.17
2023-04-12T04:35:08.242Z,0.40
2023-04-12T04:40:30.065Z,0.20
2023-04-12T04:45:54.853Z,0.10
2023-04-12T04:51:17.067Z,0.17
2023-04-12T04:56:38.946Z,0.20
2023-04-12T05:02:00.828Z,0.10
2023-04-12T05:07:22.677Z,0.20
2023-04-12T05:12:44.445Z,0.20
2023-04-12T05:18:06.325Z,0.30
2023-04-12T05:23:28.363Z,0.35
2023-04-12T05:28:50.226Z,0.70
2023-04-12T05:34:12.074Z,0.40
2023-04-12T05:39:34.064Z,0.40
2023-04-12T05:44:56.730Z,0.30
2023-04-12T05:50:18.701Z,0.68
2023-04-12T05:55:40.604Z,0.40
2023-04-12T06:01:02.528Z,0.40
2023-04-12T06:06:24.491Z,0.40
2023-04-12T06:11:46.618Z,0.52
2023-04-12T06:17:08.429Z,0.30
2023-04-12T06:22:30.349Z,0.30
2023-04-12T06:27:52.208Z,0.20
2023-04-12T06:33:14.057Z,0.38
2023-04-12T06:38:35.887Z,0.40
2023-04-12T06:43:57.730Z,0.30
2023-04-12T06:49:20.169Z,0.50
2023-04-12T06:54:42.724Z,0.30
2023-04-12T07:00:05.061Z,0.50
2023-04-12T07:05:26.948Z,0.20
2023-04-12T07:10:54.302Z,0.25
2023-04-12T07:16:17.056Z,0.30
2023-04-12T07:21:38.920Z,0.40
2023-04-12T07:27:00.788Z,0.50
2023-04-12T07:32:23.646Z,0.35
2023-04-12T07:37:45.552Z,0.50
2023-04-12T07:43:07.413Z,0.32
2023-04-12T07:48:29.330Z,0.40
2023-04-12T07:53:52.044Z,0.38
2023-04-12T07:59:13.884Z,0.25
2023-04-12T08:04:36.027Z,0.40
2023-04-12T08:09:57.827Z,0.40
2023-04-12T08:15:19.725Z,0.40
2023-04-12T08:20:42.585Z,0.40
2023-04-12T08:26:04.596Z,0.50
2023-04-12T08:31:26.501Z,0.40
2023-04-12T08:36:48.328Z,0.50
2023-04-12T08:42:11.470Z,0.50
2023-04-12T08:47:42.389Z,0.40
2023-04-12T08:53:05.021Z,0.28
2023-04-12T08:58:27.382Z,0.80
2023-04-12T09:03:49.812Z,0.40
2023-04-12T09:09:12.021Z,0.45
2023-04-12T09:14:33.918Z,0.40
2023-04-12T09:19:56.617Z,0.85
2023-04-12T09:25:18.789Z,1.20
2023-04-12T09:30:43.558Z,0.60
2023-04-12T09:36:06.949Z,0.60
2023-04-12T09:41:32.398Z,0.85
2023-04-12T09:46:54.403Z,0.75
2023-04-12T09:52:32.481Z,0.55
2023-04-12T09:57:56.385Z,0.70
2023-04-12T10:03:19.053Z,0.40
2023-04-12T10:08:42.194Z,1.00
2023-04-12T10:14:04.216Z,0.63
2023-04-12T10:19:27.939Z,0.82
2023-04-12T10:24:50.066Z,1.02
2023-04-12T10:30:20.992Z,1.58
2023-04-12T10:35:48.660Z,1.63
2023-04-12T10:41:14.608Z,1.15
2023-04-12T10:46:39.869Z,1.17
2023-04-12T10:57:45.416Z,1.20
2023-04-12T11:03:12.646Z,1.10
2023-04-12T11:08:40.030Z,1.13
2023-04-12T11:14:02.773Z,1.38
2023-04-12T11:19:25.396Z,1.17
2023-04-12T11:24:52.416Z,0.88
2023-04-12T11:30:14.442Z,0.88
2023-04-12T11:35:36.443Z,0.80
2023-04-12T11:40:58.372Z,1.00
2023-04-12T11:46:20.293Z,1.08
2023-04-12T11:51:42.251Z,0.77
2023-04-12T11:57:05.690Z,0.95
2023-04-12T12:02:32.354Z,1.00
2023-04-12T12:07:58.384Z,0.70
2023-04-12T12:13:21.562Z,0.68
2023-04-12T12:18:45.004Z,0.70
2023-04-12T12:24:07.155Z,0.65
2023-04-12T12:29:35.228Z,0.95
2023-04-12T12:34:58.669Z,0.80
2023-04-12T12:40:29.684Z,0.80
2023-04-12T12:45:51.608Z,0.57
2023-04-12T12:51:17.944Z,0.70
2023-04-12T12:56:39.789Z,0.90
2023-04-12T13:02:01.932Z,0.40
2023-04-12T13:07:23.911Z,0.80
2023-04-12T13:12:46.347Z,0.90
2023-04-12T13:18:08.499Z,0.60
2023-04-12T13:23:30.477Z,0.77
2023-04-12T13:28:52.309Z,0.65
2023-04-12T13:34:14.099Z,0.50
2023-04-12T13:39:36.701Z,0.50
2023-04-12T13:44:58.558Z,1.00
2023-04-12T13:50:20.442Z,0.70
2023-04-12T13:55:42.273Z,0.60
2023-04-12T14:01:04.222Z,0.70
2023-04-12T14:06:27.444Z,0.60
2023-04-12T14:11:49.528Z,0.45
2023-04-12T14:17:11.603Z,0.40
2023-04-12T14:22:33.603Z,0.47
2023-04-12T14:27:55.539Z,0.60
2023-04-12T14:33:18.240Z,0.32
2023-04-12T14:38:40.147Z,0.32
2023-04-12T14:44:02.445Z,0.50
2023-04-12T14:49:24.448Z,0.60
2023-04-12T14:54:46.337Z,0.30
2023-04-12T15:00:13.581Z,0.30
2023-04-12T15:05:36.426Z,0.40
2023-04-12T15:10:58.380Z,0.20
2023-04-12T15:16:20.289Z,0.45
2023-04-12T15:21:43.909Z,0.47
2023-04-12T15:27:06.710Z,0.40
2023-04-12T15:32:29.572Z,0.63
2023-04-12T15:37:52.254Z,0.40
2023-04-12T15:43:14.154Z,0.60
2023-04-12T15:48:39.061Z,0.50
2023-04-12T15:54:01.405Z,0.70
2023-04-12T15:59:23.276Z,0.25
2023-04-12T16:04:46.113Z,0.30
2023-04-12T16:10:08.700Z,0.40
2023-04-12T16:15:30.640Z,0.28
2023-04-12T16:20:52.497Z,0.40
2023-04-12T16:26:17.613Z,0.60
2023-04-12T16:31:39.524Z,0.65
2023-04-12T16:37:01.920Z,0.70
2023-04-12T16:42:24.278Z,0.73
2023-04-12T16:47:47.363Z,0.70
2023-04-12T16:53:09.230Z,0.50
2023-04-12T16:58:31.652Z,0.75
2023-04-12T17:03:53.605Z,0.68
2023-04-12T17:09:15.656Z,0.55
2023-04-12T17:14:37.621Z,0.77
2023-04-12T17:19:59.441Z,0.40
2023-04-12T17:25:23.154Z,0.50
2023-04-12T17:30:47.822Z,0.60
2023-04-12T17:36:11.831Z,0.75
2023-04-12T17:41:33.960Z,0.70
2023-04-12T17:46:56.934Z,0.70
2023-04-12T17:52:18.790Z,0.68
2023-04-12T17:57:41.788Z,0.70
2023-04-12T18:03:03.916Z,0.70
2023-04-12T18:08:26.039Z,0.60
2023-04-12T18:13:47.898Z,0.70
2023-04-12T18:19:11.510Z,0.88
2023-04-12T18:24:33.755Z,0.50
2023-04-12T18:29:56.811Z,0.65
2023-04-12T18:35:18.853Z,0.70
2023-04-12T18:40:40.740Z,0.43
2023-04-12T18:46:02.567Z,0.50
2023-04-12T18:51:24.819Z,0.80
2023-04-12T18:56:46.686Z,0.45
2023-04-12T19:02:09.227Z,0.38
2023-04-12T19:07:31.519Z,0.45
2023-04-12T19:12:53.845Z,0.60
2023-04-12T19:18:16.278Z,0.88
2023-04-12T19:23:38.430Z,0.60
2023-04-12T19:29:00.277Z,0.88
2023-04-12T19:34:22.106Z,0.95
2023-04-12T19:39:43.995Z,0.98
2023-04-12T19:45:06.257Z,1.10
2023-04-12T19:50:31.160Z,1.25
2023-04-12T19:55:57.384Z,1.20
2023-04-12T20:01:19.242Z,1.52
2023-04-12T20:06:41.777Z,1.25
2023-04-12T20:12:04.054Z,1.02
2023-04-12T20:17:26.153Z,1.25
2023-04-12T20:22:52.228Z,2.00
2023-04-12T20:28:15.025Z,1.30
2023-04-12T20:33:36.897Z,1.20
2023-04-12T20:38:58.976Z,1.23
2023-04-12T20:44:21.452Z,1.30
2023-04-12T20:49:43.721Z,0.75
2023-04-12T20:55:07.597Z,1.02
2023-04-12T21:00:30.154Z,0.93
2023-04-12T21:05:53.035Z,0.98
2023-04-12T21:11:14.966Z,0.70
2023-04-12T21:16:41.781Z,0.65
2023-04-12T21:22:03.861Z,0.80
2023-04-12T21:27:26.980Z,0.50
2023-04-12T21:32:48.851Z,0.90
2023-04-12T21:38:11.125Z,0.57
2023-04-12T21:43:33.100Z,0.75
2023-04-12T21:48:55.063Z,0.50
2023-04-12T21:54:17.110Z,0.30
2023-04-12T21:59:39.439Z,0.60
2023-04-12T22:05:01.393Z,1.00
2023-04-12T22:10:23.227Z,0.50
2023-04-12T22:15:45.496Z,0.30
2023-04-12T22:21:08.385Z,0.50
2023-04-12T22:26:31.751Z,0.30
2023-04-12T22:31:53.694Z,0.47
2023-04-12T22:37:15.568Z,0.35
2023-04-12T22:42:37.918Z,0.40
2023-04-12T22:47:59.882Z,0.50
2023-04-12T22:53:22.678Z,0.60
2023-04-12T22:58:44.559Z,0.35
2023-04-12T23:04:06.703Z,0.47
2023-04-12T23:09:29.022Z,0.35
2023-04-12T23:14:51.234Z,0.30
2023-04-12T23:20:14.589Z,0.40
2023-04-12T23:25:39.817Z,0.28
2023-04-12T23:31:02.070Z,0.50
2023-04-12T23:36:26.169Z,0.38
2023-04-12T23:41:48.078Z,0.30
2023-04-12T23:47:10.088Z,0.20
2023-04-12T23:52:32.878Z,0.30
2023-04-12T23:57:54.874Z,0.30
